Time;durP1;ratioP1;P1;durP2;ratioP2;P2;SDS_P1;SDS_P2;PMS_P1;PMS_P2;Temp;Humidity;BMP_temperature;BMP_pressure;BME280_temperature;BME280_humidity;BME280_pressure;Samples;Min_cycle;Max_cycle;Signal;HPM_P1;HPM_P2
2023/07/09 00:00:48;;;;;;;11.15;7.40;;;22.90;26.90;;;;;;5046415;28;20401;-72
2023/07/09 00:03:15;;;;;;;10.40;7.10;;;22.90;26.70;;;;;;5039652;28;20744;-72
2023/07/09 00:05:41;;;;;;;15.13;6.90;;;22.90;27.00;;;;;;5030667;28;20760;-71
2023/07/09 00:08:29;;;;;;;14.32;6.88;;;22.90;27.00;;;;;;5033964;28;20818;-72
2023/07/09 00:10:58;;;;;;;10.43;7.03;;;22.80;27.00;;;;;;5030290;28;21164;-72
2023/07/09 00:13:26;;;;;;;9.23;6.50;;;22.80;26.90;;;;;;5032260;28;20779;-71
2023/07/09 00:15:52;;;;;;;11.30;6.60;;;22.80;26.90;;;;;;5030440;28;20503;-71
2023/07/09 00:18:18;;;;;;;11.65;7.13;;;22.80;26.70;;;;;;5031158;28;20379;-72
2023/07/09 00:20:44;;;;;;;10.45;6.88;;;22.80;27.00;;;;;;5030481;28;20843;-73
2023/07/09 00:23:13;;;;;;;12.33;7.13;;;22.80;26.80;;;;;;5030643;28;20406;-73
2023/07/09 00:25:41;;;;;;;13.37;7.40;;;22.70;26.70;;;;;;5030781;28;20446;-73
2023/07/09 00:28:14;;;;;;;9.88;6.65;;;22.70;26.90;;;;;;5030682;28;20437;-73
2023/07/09 00:30:40;;;;;;;14.00;7.40;;;22.80;26.60;;;;;;5013798;28;20906;-72
2023/07/09 00:33:14;;;;;;;13.35;7.25;;;22.80;26.40;;;;;;5030798;28;20818;-73
2023/07/09 00:35:46;;;;;;;12.68;6.78;;;22.70;26.60;;;;;;5030431;28;20407;-73
2023/07/09 00:38:21;;;;;;;9.73;7.10;;;22.70;26.90;;;;;;5030951;28;20433;-72
2023/07/09 00:40:48;;;;;;;12.88;6.60;;;22.60;26.70;;;;;;5030748;28;20388;-72
2023/07/09 00:43:16;;;;;;;9.55;6.25;;;22.60;26.80;;;;;;5030376;28;20383;-72
2023/07/09 00:45:41;;;;;;;10.10;6.70;;;22.60;27.10;;;;;;5030741;28;20411;-72
2023/07/09 00:48:14;;;;;;;11.60;7.20;;;22.60;26.80;;;;;;5030798;28;20555;-72
2023/07/09 00:50:51;;;;;;;11.70;6.77;;;22.60;26.80;;;;;;5031268;28;20846;-72
2023/07/09 00:53:20;;;;;;;12.25;6.65;;;22.60;27.20;;;;;;5031146;28;20383;-72
2023/07/09 00:56:03;;;;;;;14.70;7.25;;;22.50;27.10;;;;;;5030513;28;20403;-72
2023/07/09 00:58:30;;;;;;;16.23;6.60;;;22.50;27.20;;;;;;5030999;28;20436;-72
2023/07/09 01:01:03;;;;;;;11.30;6.50;;;22.50;27.20;;;;;;5032687;28;20427;-72
2023/07/09 01:03:42;;;;;;;9.33;6.60;;;22.40;27.30;;;;;;5034043;28;20378;-72
2023/07/09 01:06:09;;;;;;;13.35;7.00;;;22.40;27.40;;;;;;5016260;28;20438;-72
2023/07/09 01:08:38;;;;;;;10.23;6.95;;;22.40;27.40;;;;;;5033541;28;20613;-72
2023/07/09 01:11:04;;;;;;;11.90;7.03;;;22.40;27.60;;;;;;5032870;28;20740;-72
2023/07/09 01:13:35;;;;;;;10.63;7.03;;;22.40;27.80;;;;;;5030458;28;20394;-72
2023/07/09 01:16:00;;;;;;;9.50;6.10;;;22.30;28.10;;;;;;5065422;23;20663;-71
2023/07/09 01:18:26;;;;;;;11.57;6.80;;;22.30;27.80;;;;;;5053476;28;20380;-72
2023/07/09 01:21:03;;;;;;;13.87;6.60;;;22.30;28.00;;;;;;5052964;28;20660;-72
2023/07/09 01:23:28;;;;;;;12.48;7.20;;;22.40;27.70;;;;;;5052881;28;20383;-71
2023/07/09 01:25:55;;;;;;;10.23;6.25;;;22.40;27.40;;;;;;5071500;28;20775;-72
2023/07/09 01:28:22;;;;;;;13.02;6.63;;;22.40;27.70;;;;;;5071217;28;20380;-72
2023/07/09 01:30:53;;;;;;;9.85;6.43;;;22.40;27.50;;;;;;5052513;28;20383;-71
2023/07/09 01:33:21;;;;;;;10.98;6.63;;;22.40;27.50;;;;;;5072241;28;20412;-73
2023/07/09 01:35:47;;;;;;;12.25;6.60;;;22.40;27.70;;;;;;5071107;28;20414;-73
2023/07/09 01:38:13;;;;;;;10.07;6.45;;;22.40;27.60;;;;;;5072079;28;20418;-72
2023/07/09 01:40:39;;;;;;;11.15;6.60;;;22.40;27.60;;;;;;5071918;28;20380;-72
2023/07/09 01:43:08;;;;;;;11.38;6.35;;;22.30;28.00;;;;;;5071299;28;20383;-71
2023/07/09 01:45:35;;;;;;;10.70;6.30;;;22.20;28.30;;;;;;5071299;28;20433;-72
2023/07/09 01:48:01;;;;;;;9.43;6.70;;;22.10;28.60;;;;;;5071408;28;20388;-72
2023/07/09 01:50:27;;;;;;;10.80;5.67;;;22.10;28.80;;;;;;5070803;28;20444;-72
2023/07/09 01:52:54;;;;;;;17.00;7.50;;;22.10;28.90;;;;;;5070770;28;20386;-71
2023/07/09 01:55:20;;;;;;;12.20;7.57;;;22.00;29.30;;;;;;5070685;28;20412;-72
2023/07/09 01:57:46;;;;;;;11.10;6.65;;;22.00;29.40;;;;;;5070847;28;20542;-72
2023/07/09 02:00:14;;;;;;;12.40;6.78;;;22.00;29.60;;;;;;5071305;28;20441;-71
2023/07/09 02:02:45;;;;;;;12.17;7.20;;;22.00;29.50;;;;;;5070690;28;20426;-71
2023/07/09 02:05:13;;;;;;;10.00;6.70;;;22.00;29.40;;;;;;5070468;28;20387;-72
2023/07/09 02:07:40;;;;;;;13.30;7.20;;;22.00;29.40;;;;;;5053587;28;20387;-73
2023/07/09 02:10:06;;;;;;;11.85;7.40;;;21.90;29.90;;;;;;5058343;28;20420;-73
2023/07/09 02:12:31;;;;;;;9.98;6.30;;;21.90;30.40;;;;;;5075388;28;20868;-72
2023/07/09 02:14:57;;;;;;;10.73;6.80;;;21.80;30.60;;;;;;5073792;28;20414;-71
2023/07/09 02:17:22;;;;;;;12.97;6.60;;;21.80;30.80;;;;;;5073909;28;20940;-72
2023/07/09 02:19:48;;;;;;;9.85;7.00;;;21.70;30.90;;;;;;5073535;28;20405;-72
2023/07/09 02:22:14;;;;;;;10.23;6.90;;;21.70;31.00;;;;;;5073481;28;20376;-72
2023/07/09 02:24:39;;;;;;;9.75;6.63;;;21.80;30.70;;;;;;5073504;28;20442;-73
2023/07/09 02:27:07;;;;;;;10.00;6.53;;;21.80;30.70;;;;;;5073532;28;20885;-72
2023/07/09 02:29:33;;;;;;;9.23;6.63;;;22.00;30.00;;;;;;5073304;28;20394;-72
2023/07/09 02:32:01;;;;;;;13.85;7.32;;;22.00;30.00;;;;;;5072317;28;21331;-71
2023/07/09 02:34:28;;;;;;;16.48;7.55;;;22.00;30.00;;;;;;5073320;28;20487;-71
2023/07/09 02:36:55;;;;;;;13.07;6.82;;;22.00;30.00;;;;;;5072924;28;20455;-71
2023/07/09 02:39:22;;;;;;;12.67;6.70;;;22.00;29.90;;;;;;5073297;28;20447;-72
2023/07/09 02:41:48;;;;;;;10.75;7.00;;;22.00;30.00;;;;;;5072957;28;20756;-72
2023/07/09 02:44:14;;;;;;;12.40;7.00;;;21.90;30.10;;;;;;5073305;28;20400;-72
2023/07/09 02:46:40;;;;;;;12.20;6.80;;;21.90;30.40;;;;;;5073019;28;20548;-71
2023/07/09 02:49:06;;;;;;;10.88;7.15;;;21.90;30.50;;;;;;5074018;28;20380;-71
2023/07/09 02:51:33;;;;;;;12.43;7.30;;;21.90;30.40;;;;;;5073748;28;20787;-72
2023/07/09 02:54:01;;;;;;;10.25;6.88;;;21.90;30.50;;;;;;5073050;28;20379;-72
2023/07/09 02:56:27;;;;;;;13.52;7.75;;;21.90;30.50;;;;;;5072837;28;20964;-71
2023/07/09 02:58:53;;;;;;;20.95;7.68;;;21.90;30.70;;;;;;5072874;28;20478;-72
2023/07/09 03:01:24;;;;;;;8.57;6.35;;;21.80;30.80;;;;;;5072611;28;20463;-71
2023/07/09 03:03:57;;;;;;;11.55;7.35;;;21.80;31.00;;;;;;5072784;28;20516;-72
2023/07/09 03:06:24;;;;;;;13.85;7.60;;;21.80;31.20;;;;;;5072952;28;20744;-70
2023/07/09 03:08:51;;;;;;;10.32;6.95;;;21.70;31.60;;;;;;5072659;28;20458;-73
2023/07/09 03:11:16;;;;;;;14.10;7.53;;;21.70;31.50;;;;;;5072702;28;20386;-72
2023/07/09 03:13:42;;;;;;;14.15;6.85;;;21.70;31.70;;;;;;5072682;28;20744;-71
2023/07/09 03:16:08;;;;;;;11.60;6.60;;;21.70;31.60;;;;;;5072538;28;20408;-72
2023/07/09 03:18:33;;;;;;;13.00;7.40;;;21.70;31.80;;;;;;5073841;28;20387;-73
2023/07/09 03:20:59;;;;;;;17.20;6.80;;;21.70;31.60;;;;;;5072695;28;20380;-72
2023/07/09 03:23:25;;;;;;;13.00;6.80;;;21.70;31.80;;;;;;5072395;28;20740;-72
2023/07/09 03:25:50;;;;;;;12.32;7.22;;;21.80;31.50;;;;;;5072443;28;20458;-72
2023/07/09 03:28:16;;;;;;;14.50;7.10;;;21.70;31.90;;;;;;5072619;28;20384;-72
2023/07/09 03:30:46;;;;;;;12.73;6.60;;;21.60;32.60;;;;;;5072269;28;20399;-73
2023/07/09 03:33:14;;;;;;;12.98;7.35;;;21.60;31.90;;;;;;5071903;28;20384;-73
2023/07/09 03:35:40;;;;;;;11.93;7.10;;;21.60;32.20;;;;;;5053890;28;20407;-71
2023/07/09 03:38:07;;;;;;;12.20;7.05;;;21.50;32.50;;;;;;5072311;28;20933;-71
2023/07/09 03:40:33;;;;;;;16.10;7.32;;;21.50;32.80;;;;;;5072154;28;20383;-73
2023/07/09 03:42:59;;;;;;;11.70;7.03;;;21.50;32.90;;;;;;5071975;28;20625;-72
2023/07/09 03:45:24;;;;;;;13.85;7.40;;;21.40;33.00;;;;;;5071993;28;20444;-72
2023/07/09 03:47:50;;;;;;;14.07;7.30;;;21.40;33.10;;;;;;5072071;28;20852;-72
2023/07/09 03:50:16;;;;;;;15.17;7.77;;;21.40;33.20;;;;;;5072352;28;20816;-72
2023/07/09 03:52:41;;;;;;;12.87;7.70;;;21.40;33.20;;;;;;5071918;28;20466;-72
2023/07/09 03:55:07;;;;;;;12.95;7.15;;;21.40;33.40;;;;;;5054413;28;20435;-72
2023/07/09 03:57:35;;;;;;;12.23;7.05;;;21.50;33.40;;;;;;5054667;28;20513;-72
2023/07/09 04:00:02;;;;;;;11.32;7.65;;;21.50;33.20;;;;;;5072170;28;20388;-72
2023/07/09 04:02:28;;;;;;;11.18;7.18;;;21.60;33.00;;;;;;5071945;28;20384;-72
2023/07/09 04:04:53;;;;;;;26.67;7.68;;;21.70;32.90;;;;;;5075902;28;20395;-73
2023/07/09 04:07:20;;;;;;;10.03;6.60;;;21.70;32.70;;;;;;5076144;28;20423;-72
2023/07/09 04:09:45;;;;;;;9.52;7.13;;;21.70;32.60;;;;;;5081201;28;20403;-72
2023/07/09 04:12:11;;;;;;;15.07;7.18;;;21.80;32.40;;;;;;5078389;28;20768;-72
2023/07/09 04:14:37;;;;;;;16.53;7.60;;;21.80;32.10;;;;;;5056108;28;20395;-72
2023/07/09 04:17:03;;;;;;;12.38;7.32;;;21.80;32.10;;;;;;5074399;28;20398;-70
2023/07/09 04:19:29;;;;;;;12.85;7.13;;;21.90;31.50;;;;;;5073750;28;20438;-71
2023/07/09 04:21:55;;;;;;;11.70;7.00;;;22.00;31.50;;;;;;5055739;28;20388;-71
2023/07/09 04:24:20;;;;;;;13.68;7.63;;;22.00;31.50;;;;;;5074914;28;20398;-72
2023/07/09 04:26:47;;;;;;;12.95;7.22;;;22.10;31.20;;;;;;5055505;28;20463;-72
2023/07/09 04:29:13;;;;;;;9.93;6.50;;;22.10;31.50;;;;;;5072788;28;20383;-72
2023/07/09 04:31:41;;;;;;;10.40;6.95;;;22.30;30.50;;;;;;5072425;28;20383;-72
2023/07/09 04:34:07;;;;;;;16.25;7.43;;;22.30;30.40;;;;;;5072793;28;20864;-72
2023/07/09 04:36:33;;;;;;;12.63;7.20;;;22.30;30.10;;;;;;5054065;28;20749;-73
2023/07/09 04:38:59;;;;;;;14.77;7.30;;;22.40;29.70;;;;;;5072239;28;20383;-72
2023/07/09 04:41:25;;;;;;;12.20;6.95;;;22.50;29.50;;;;;;5072430;28;20526;-71
2023/07/09 04:43:51;;;;;;;13.40;7.10;;;22.60;29.10;;;;;;5072036;28;20395;-71
2023/07/09 04:46:16;;;;;;;11.93;6.88;;;22.70;28.60;;;;;;5053820;28;20399;-71
2023/07/09 04:48:42;;;;;;;12.93;6.87;;;22.70;28.40;;;;;;5053286;28;20383;-71
2023/07/09 04:51:08;;;;;;;11.73;7.20;;;22.80;27.80;;;;;;5071667;28;20379;-70
2023/07/09 04:53:34;;;;;;;11.32;6.75;;;23.00;27.50;;;;;;5052931;28;20383;-71
2023/07/09 04:55:59;;;;;;;15.73;6.25;;;23.10;27.20;;;;;;5071634;28;20403;-71
2023/07/09 04:58:25;;;;;;;12.00;7.47;;;23.10;27.30;;;;;;5072451;28;20384;-72
2023/07/09 05:00:50;;;;;;;14.27;6.57;;;23.20;26.70;;;;;;5071221;28;20989;-71
2023/07/09 05:03:18;;;;;;;10.17;6.63;;;23.20;27.20;;;;;;5071035;28;20886;-71
2023/07/09 05:05:45;;;;;;;12.15;7.05;;;23.30;26.40;;;;;;5070742;28;20383;-72
2023/07/09 05:08:11;;;;;;;13.63;6.50;;;23.30;26.20;;;;;;5071438;28;20387;-72
2023/07/09 05:10:49;;;;;;;11.75;6.32;;;23.50;26.10;;;;;;5071246;28;20470;-71
2023/07/09 05:13:16;;;;;;;11.20;6.40;;;23.50;26.00;;;;;;5070451;28;20468;-71
2023/07/09 05:15:44;;;;;;;12.40;6.70;;;23.50;25.80;;;;;;5070420;28;20408;-71
2023/07/09 05:18:10;;;;;;;9.90;6.30;;;23.70;25.70;;;;;;5070497;28;20457;-71
2023/07/09 05:20:36;;;;;;;11.80;7.10;;;23.60;25.50;;;;;;5070452;28;20466;-71
2023/07/09 05:23:02;;;;;;;13.53;6.47;;;23.80;25.40;;;;;;5070499;28;20472;-70
2023/07/09 05:25:27;;;;;;;10.97;6.73;;;23.80;24.90;;;;;;5070343;28;20387;-71
2023/07/09 05:27:53;;;;;;;13.43;6.72;;;23.90;24.80;;;;;;5070766;28;20380;-73
2023/07/09 05:30:19;;;;;;;10.03;6.27;;;24.00;24.50;;;;;;5070978;28;20396;-72
2023/07/09 05:32:46;;;;;;;11.70;6.80;;;24.10;24.50;;;;;;5070413;28;20384;-71
2023/07/09 05:35:13;;;;;;;9.98;6.63;;;24.10;24.30;;;;;;5070497;28;20415;-70
2023/07/09 05:37:39;;;;;;;12.75;6.45;;;24.20;24.10;;;;;;5070930;28;20479;-73
2023/07/09 05:40:08;;;;;;;11.63;6.60;;;24.30;23.80;;;;;;5071686;28;20391;-72
2023/07/09 05:42:34;;;;;;;13.30;6.70;;;24.30;23.90;;;;;;5073381;28;20375;-72
2023/07/09 05:45:00;;;;;;;11.73;6.30;;;24.40;23.70;;;;;;5077312;28;20864;-72
2023/07/09 05:47:26;;;;;;;12.45;7.20;;;24.50;23.60;;;;;;5078275;28;20457;-71
2023/07/09 05:49:52;;;;;;;13.03;6.13;;;24.60;23.20;;;;;;5079522;28;20387;-72
2023/07/09 05:52:19;;;;;;;13.20;6.70;;;24.70;23.30;;;;;;5082235;28;20380;-72
2023/07/09 05:54:45;;;;;;;12.85;6.57;;;24.80;22.60;;;;;;5079854;28;20756;-71
2023/07/09 05:57:11;;;;;;;9.40;6.60;;;24.80;22.70;;;;;;5082577;28;20379;-71
2023/07/09 05:59:36;;;;;;;11.35;6.10;;;24.90;22.20;;;;;;5082785;28;20395;-73
2023/07/09 06:02:03;;;;;;;12.73;6.53;;;25.00;22.30;;;;;;5079969;28;20384;-73
2023/07/09 06:04:30;;;;;;;14.80;6.50;;;25.00;22.10;;;;;;5080427;28;20376;-72
2023/07/09 06:07:04;;;;;;;13.13;7.00;;;25.00;22.10;;;;;;5082675;28;20379;-76
2023/07/09 06:09:30;;;;;;;9.25;6.20;;;25.20;21.80;;;;;;5081030;28;20387;-72
2023/07/09 06:11:56;;;;;;;11.50;6.28;;;25.20;21.60;;;;;;5080271;28;20417;-71
2023/07/09 06:14:21;;;;;;;8.30;6.10;;;25.30;21.70;;;;;;5080067;28;20403;-73
2023/07/09 06:16:47;;;;;;;11.57;6.45;;;25.30;21.70;;;;;;5081036;28;20396;-72
2023/07/09 06:19:12;;;;;;;12.07;6.77;;;25.40;21.70;;;;;;5081127;28;20379;-72
2023/07/09 06:21:39;;;;;;;11.57;6.53;;;25.50;21.00;;;;;;5080206;28;20387;-73
2023/07/09 06:24:07;;;;;;;13.30;6.30;;;25.60;21.10;;;;;;5062497;28;20390;-73
2023/07/09 06:26:32;;;;;;;11.63;6.70;;;25.60;21.00;;;;;;5080267;28;20446;-73
2023/07/09 06:28:58;;;;;;;12.30;6.40;;;25.80;20.50;;;;;;5079553;28;20922;-72
2023/07/09 06:31:24;;;;;;;12.30;6.37;;;25.90;20.00;;;;;;5078897;28;20387;-72
2023/07/09 06:33:50;;;;;;;14.50;6.60;;;25.80;20.10;;;;;;5061383;28;20380;-72
2023/07/09 06:36:17;;;;;;;11.23;5.97;;;25.90;20.00;;;;;;5079082;28;20438;-72
2023/07/09 06:38:42;;;;;;;12.35;6.40;;;26.00;20.40;;;;;;5080040;28;20383;-72
2023/07/09 06:41:08;;;;;;;10.00;6.20;;;26.10;20.20;;;;;;5080686;28;20384;-72
2023/07/09 06:43:34;;;;;;;10.13;6.10;;;26.10;20.00;;;;;;5080107;28;20384;-71
2023/07/09 06:46:00;;;;;;;12.07;6.40;;;26.20;19.50;;;;;;5080502;28;20477;-72
2023/07/09 06:48:28;;;;;;;10.17;6.10;;;26.30;19.60;;;;;;5079752;28;20467;-71
2023/07/09 06:50:54;;;;;;;12.10;6.50;;;26.50;19.50;;;;;;5076170;28;20895;-71
2023/07/09 06:53:21;;;;;;;12.02;7.05;;;26.60;18.90;;;;;;5056535;28;20390;-72
2023/07/09 06:55:48;;;;;;;8.43;5.90;;;26.60;19.10;;;;;;5072513;28;20928;-73
2023/07/09 06:58:15;;;;;;;10.00;6.32;;;26.70;19.10;;;;;;5072807;28;20395;-72
2023/07/09 07:00:41;;;;;;;10.23;6.40;;;26.70;19.00;;;;;;5072773;28;20415;-73
2023/07/09 07:03:07;;;;;;;7.63;6.40;;;26.90;18.50;;;;;;5072391;28;20412;-72
2023/07/09 07:05:33;;;;;;;15.18;6.50;;;27.00;18.80;;;;;;5072477;28;20384;-72
2023/07/09 07:08:00;;;;;;;12.00;6.70;;;27.00;18.60;;;;;;5072667;28;20467;-70
2023/07/09 07:10:26;;;;;;;11.23;6.90;;;27.00;18.60;;;;;;5072998;28;20383;-71
2023/07/09 07:12:53;;;;;;;10.73;6.53;;;27.20;18.40;;;;;;5072529;28;20391;-71
2023/07/09 07:15:19;;;;;;;11.95;6.38;;;27.30;18.20;;;;;;5084802;22;20419;-72
2023/07/09 07:17:45;;;;;;;8.82;6.18;;;27.40;18.40;;;;;;5072890;28;20391;-73
2023/07/09 07:20:12;;;;;;;10.73;6.55;;;27.40;18.20;;;;;;5072342;28;20466;-72
2023/07/09 07:22:38;;;;;;;11.80;6.78;;;27.50;18.10;;;;;;5072345;28;20383;-73
2023/07/09 07:25:05;;;;;;;10.50;5.95;;;27.60;17.90;;;;;;5072460;28;20407;-73
2023/07/09 07:27:31;;;;;;;13.18;6.00;;;27.70;17.50;;;;;;5054102;28;20457;-72
2023/07/09 07:29:57;;;;;;;9.93;6.60;;;27.80;17.30;;;;;;5072393;28;20821;-72
2023/07/09 07:32:23;;;;;;;14.98;6.70;;;27.90;17.40;;;;;;5071791;28;20474;-73
2023/07/09 07:34:49;;;;;;;8.95;6.00;;;28.00;17.40;;;;;;5071752;28;20763;-72
2023/07/09 07:37:17;;;;;;;9.88;6.28;;;28.10;17.30;;;;;;5071633;28;20384;-72
2023/07/09 07:39:43;;;;;;;10.18;6.57;;;28.10;16.90;;;;;;5072072;28;20467;-72
2023/07/09 07:42:08;;;;;;;13.00;6.77;;;28.20;16.50;;;;;;5053795;28;20460;-72
2023/07/09 07:44:34;;;;;;;12.00;7.28;;;28.20;16.50;;;;;;5053920;28;20387;-72
2023/07/09 07:46:59;;;;;;;9.33;6.47;;;28.30;16.50;;;;;;5071702;28;20387;-72
2023/07/09 07:49:25;;;;;;;11.27;6.50;;;28.40;16.10;;;;;;5071536;28;20379;-73
2023/07/09 07:51:51;;;;;;;9.95;6.35;;;28.60;16.20;;;;;;5071527;28;20444;-73
2023/07/09 07:54:18;;;;;;;11.27;6.80;;;28.70;15.60;;;;;;5072033;28;20401;-73
2023/07/09 07:56:43;;;;;;;11.80;6.30;;;28.80;15.30;;;;;;5071243;28;20387;-73
2023/07/09 07:59:09;;;;;;;8.07;6.57;;;28.80;15.30;;;;;;5071271;28;20380;-72
2023/07/09 08:01:35;;;;;;;9.68;6.68;;;28.80;15.30;;;;;;5071194;28;20937;-74
2023/07/09 08:04:02;;;;;;;12.05;6.40;;;28.90;15.20;;;;;;5070747;28;20892;-74
2023/07/09 08:06:28;;;;;;;11.90;6.88;;;29.00;15.50;;;;;;5075534;28;20403;-74
2023/07/09 08:08:53;;;;;;;8.40;6.00;;;29.00;14.90;;;;;;5076435;28;20388;-73
2023/07/09 08:11:19;;;;;;;10.57;6.87;;;29.10;15.10;;;;;;5062712;28;20389;-74
2023/07/09 08:13:45;;;;;;;13.37;7.07;;;29.20;14.80;;;;;;5062755;28;20476;-73
2023/07/09 08:16:11;;;;;;;8.30;6.05;;;29.20;14.70;;;;;;5060741;28;20418;-73
2023/07/09 08:18:37;;;;;;;9.50;6.57;;;29.40;14.80;;;;;;5070382;28;20502;-75
2023/07/09 08:21:03;;;;;;;11.00;6.78;;;29.50;14.30;;;;;;5052739;28;20441;-73
2023/07/09 08:23:29;;;;;;;9.27;7.03;;;29.50;14.30;;;;;;5067880;28;20752;-74
2023/07/09 08:26:01;;;;;;;10.63;6.45;;;29.50;14.50;;;;;;5056790;28;20403;-73
2023/07/09 08:28:27;;;;;;;10.83;6.40;;;29.50;14.90;;;;;;5070020;28;20388;-75
2023/07/09 08:30:53;;;;;;;11.68;6.50;;;29.60;14.70;;;;;;5070118;28;20400;-76
2023/07/09 08:33:19;;;;;;;11.55;7.13;;;29.70;14.50;;;;;;5056640;28;20443;-73
2023/07/09 08:35:45;;;;;;;11.98;6.90;;;29.70;14.60;;;;;;5060062;28;20446;-72
2023/07/09 08:38:10;;;;;;;12.63;7.32;;;29.80;14.80;;;;;;5050694;28;20394;-74
2023/07/09 08:40:41;;;;;;;13.40;8.57;;;29.90;14.40;;;;;;5068921;28;20380;-74
2023/07/09 08:43:21;;;;;;;13.00;7.07;;;30.10;14.20;;;;;;5068375;28;20384;-73
2023/07/09 08:45:55;;;;;;;12.02;7.10;;;30.30;14.90;;;;;;5068024;28;20425;-74
2023/07/09 08:48:33;;;;;;;11.20;7.43;;;30.40;14.10;;;;;;5066821;28;20466;-73
2023/07/09 08:51:04;;;;;;;10.30;6.93;;;30.40;14.20;;;;;;5068343;28;20399;-72
2023/07/09 08:53:55;;;;;;;12.65;6.88;;;30.50;13.50;;;;;;5067504;28;20696;-74
2023/07/09 08:56:22;;;;;;;12.13;6.50;;;30.50;13.70;;;;;;5054035;28;20434;-74
2023/07/09 08:58:49;;;;;;;11.25;6.60;;;30.50;14.20;;;;;;5067539;28;20400;-73
2023/07/09 09:01:25;;;;;;;12.60;7.00;;;30.70;14.00;;;;;;5067498;28;20406;-73
2023/07/09 09:03:59;;;;;;;9.25;6.40;;;30.80;13.10;;;;;;5066649;28;21059;-73
2023/07/09 09:06:29;;;;;;;11.13;7.00;;;30.80;13.30;;;;;;5068090;28;20399;-73
2023/07/09 09:09:24;;;;;;;12.45;6.75;;;30.90;13.10;;;;;;5068700;28;20415;-73
2023/07/09 09:12:08;;;;;;;11.77;6.63;;;31.00;13.40;;;;;;5070277;28;20822;-74
2023/07/09 09:14:38;;;;;;;9.70;6.50;;;31.30;13.40;;;;;;5068062;28;20411;-72
2023/07/09 09:17:12;;;;;;;8.65;6.50;;;31.40;13.40;;;;;;5069574;28;20421;-72
2023/07/09 09:19:46;;;;;;;10.48;7.10;;;31.50;12.60;;;;;;5071644;28;20391;-73
2023/07/09 09:22:18;;;;;;;12.02;6.40;;;31.40;12.20;;;;;;5071832;28;20420;-72
2023/07/09 09:25:02;;;;;;;10.45;6.40;;;31.50;12.30;;;;;;5072008;28;20424;-72
2023/07/09 09:27:28;;;;;;;11.32;6.03;;;31.60;11.90;;;;;;5072225;28;20751;-72
2023/07/09 09:29:53;;;;;;;10.70;6.00;;;31.70;11.90;;;;;;5071675;28;20387;-72
2023/07/09 09:32:28;;;;;;;7.97;6.40;;;31.90;11.80;;;;;;5071128;28;20819;-76
2023/07/09 09:34:54;;;;;;;8.90;6.00;;;32.00;11.30;;;;;;5072167;28;20488;-74
2023/07/09 09:37:31;;;;;;;9.88;6.13;;;32.00;11.40;;;;;;5072057;28;20399;-73
2023/07/09 09:39:59;;;;;;;6.67;5.67;;;32.00;11.90;;;;;;5071991;28;20402;-74
2023/07/09 09:42:25;;;;;;;13.23;6.03;;;32.20;10.10;;;;;;5071618;28;20399;-74
2023/07/09 09:44:54;;;;;;;9.33;6.10;;;32.10;10.40;;;;;;5070625;28;20395;-73
2023/07/09 09:47:19;;;;;;;8.82;6.22;;;32.20;10.70;;;;;;5072061;28;20535;-74
2023/07/09 09:49:45;;;;;;;8.20;5.72;;;32.20;10.30;;;;;;5071211;28;20547;-74
2023/07/09 09:52:17;;;;;;;11.30;6.20;;;32.20;10.60;;;;;;5051287;28;20416;-73
2023/07/09 09:55:20;;;;;;;12.43;6.40;;;32.40;9.90;;;;;;5052472;28;20439;-74
2023/07/09 09:57:51;;;;;;;8.90;6.33;;;32.60;10.10;;;;;;5052460;28;20381;-74
2023/07/09 10:00:17;;;;;;;14.20;6.45;;;32.90;9.20;;;;;;5070995;28;21001;-73
2023/07/09 10:02:45;;;;;;;12.90;6.13;;;33.00;9.40;;;;;;5069439;28;20433;-74
2023/07/09 10:05:21;;;;;;;9.20;6.15;;;33.00;9.30;;;;;;5052436;28;20429;-74
2023/07/09 10:08:09;;;;;;;9.35;6.10;;;33.00;8.70;;;;;;5068214;28;20415;-73
2023/07/09 10:10:35;;;;;;;7.97;5.68;;;33.00;8.30;;;;;;5072196;28;20402;-74
2023/07/09 10:13:31;;;;;;;8.95;6.05;;;33.00;8.30;;;;;;5076396;28;20388;-74
2023/07/09 10:16:31;;;;;;;11.15;6.32;;;33.10;8.20;;;;;;5072805;28;20819;-74
2023/07/09 10:19:05;;;;;;;10.63;5.80;;;33.10;8.00;;;;;;5035607;28;20385;-73
2023/07/09 10:21:44;;;;;;;10.75;6.13;;;33.30;7.60;;;;;;5056675;28;20388;-73
2023/07/09 10:24:29;;;;;;;10.30;6.57;;;33.50;7.00;;;;;;5057018;28;20385;-73
2023/07/09 10:27:10;;;;;;;9.57;6.07;;;33.60;6.90;;;;;;5044509;28;20392;-73
2023/07/09 10:30:15;;;;;;;10.10;5.72;;;33.70;6.40;;;;;;5076758;28;20720;-72
2023/07/09 10:32:57;;;;;;;9.48;6.22;;;33.70;6.40;;;;;;5078007;28;20392;-73
2023/07/09 10:35:35;;;;;;;11.05;6.25;;;33.70;6.20;;;;;;5058560;28;20455;-72
2023/07/09 10:38:14;;;;;;;9.93;6.20;;;33.70;6.90;;;;;;5056540;28;20386;-74
2023/07/09 10:40:49;;;;;;;10.60;5.88;;;33.80;6.40;;;;;;5069855;28;20471;-73
2023/07/09 10:43:39;;;;;;;6.70;5.50;;;33.80;5.70;;;;;;5072731;28;20927;-72
2023/07/09 10:46:15;;;;;;;10.90;5.90;;;33.80;5.80;;;;;;5073683;28;20414;-74
2023/07/09 10:48:45;;;;;;;10.23;5.43;;;33.80;6.20;;;;;;5073097;28;20467;-73
2023/07/09 10:51:24;;;;;;;14.73;5.80;;;33.90;4.80;;;;;;5072943;28;20769;-73
2023/07/09 10:54:09;;;;;;;10.30;4.93;;;34.00;4.20;;;;;;5072494;28;20394;-73
2023/07/09 10:56:35;;;;;;;7.93;5.20;;;33.90;4.20;;;;;;5076564;28;20404;-73
2023/07/09 10:59:11;;;;;;;14.95;6.75;;;34.00;4.50;;;;;;5072236;28;20531;-73
2023/07/09 11:01:41;;;;;;;8.82;5.57;;;34.10;5.20;;;;;;5067440;28;20716;-72
2023/07/09 11:04:32;;;;;;;10.15;6.40;;;34.20;4.70;;;;;;5072626;28;20800;-73
2023/07/09 11:07:02;;;;;;;9.10;5.55;;;34.20;4.90;;;;;;5072238;28;20378;-73
2023/07/09 11:09:32;;;;;;;8.55;5.20;;;34.30;4.60;;;;;;5071597;28;20483;-73
2023/07/09 11:12:04;;;;;;;8.97;5.20;;;34.20;3.60;;;;;;5071531;28;20398;-73
2023/07/09 11:14:43;;;;;;;7.88;5.20;;;34.30;2.60;;;;;;5071756;28;20411;-74
2023/07/09 11:17:15;;;;;;;7.63;5.30;;;34.40;2.70;;;;;;5074908;28;20396;-73
2023/07/09 11:19:47;;;;;;;10.48;5.75;;;34.50;2.70;;;;;;5073392;28;20832;-73
2023/07/09 11:22:26;;;;;;;9.13;5.30;;;34.60;2.80;;;;;;5071940;28;20399;-73
2023/07/09 11:25:05;;;;;;;7.55;4.53;;;34.60;2.30;;;;;;5071594;28;20490;-73
2023/07/09 11:27:31;;;;;;;5.68;4.50;;;34.80;1.60;;;;;;5071868;28;20394;-74
2023/07/09 11:30:22;;;;;;;7.38;4.80;;;34.80;1.20;;;;;;5071686;28;20760;-71
2023/07/09 11:33:01;;;;;;;8.02;4.80;;;34.90;1.80;;;;;;5068711;28;20814;-72
2023/07/09 11:36:03;;;;;;;9.23;5.30;;;34.80;1.60;;;;;;5051436;28;20433;-72
2023/07/09 11:38:42;;;;;;;6.13;4.40;;;34.90;2.30;;;;;;4951225;29;20870;-73
2023/07/09 11:41:27;;;;;;;9.43;5.50;;;35.20;1.90;;;;;;5022461;28;20500;-73
2023/07/09 11:44:02;;;;;;;8.45;6.07;;;35.20;2.80;;;;;;5051634;28;20551;-73
2023/07/09 11:46:28;;;;;;;7.95;5.15;;;35.40;2.40;;;;;;5051873;28;20389;-73
2023/07/09 11:48:57;;;;;;;5.83;4.60;;;35.40;2.10;;;;;;5051346;28;20770;-73
2023/07/09 11:51:49;;;;;;;10.18;5.53;;;35.40;1.90;;;;;;5051055;28;20415;-73
2023/07/09 11:54:15;;;;;;;13.93;5.30;;;35.50;1.80;;;;;;5051134;28;20389;-72
2023/07/09 11:56:40;;;;;;;12.57;5.90;;;35.70;2.20;;;;;;5070803;28;20922;-74
2023/07/09 11:59:13;;;;;;;6.97;5.32;;;35.70;1.40;;;;;;5071249;28;20420;-72
2023/07/09 12:01:44;;;;;;;10.18;5.85;;;35.80;1.60;;;;;;5071182;28;20410;-72
2023/07/09 12:04:15;;;;;;;10.02;5.10;;;36.10;2.00;;;;;;5071921;28;20372;-72
2023/07/09 12:06:42;;;;;;;9.25;5.40;;;36.40;1.20;;;;;;5075643;28;20426;-73
2023/07/09 12:09:14;;;;;;;6.32;4.82;;;36.50;1.20;;;;;;5082615;28;20376;-72
2023/07/09 12:11:47;;;;;;;8.20;4.72;;;36.80;1.30;;;;;;5079840;28;20437;-73
2023/07/09 12:14:17;;;;;;;5.75;5.15;;;37.10;1.00;;;;;;5081470;28;20372;-73
2023/07/09 12:16:46;;;;;;;7.43;5.27;;;37.00;1.00;;;;;;5076487;28;20395;-72
2023/07/09 12:19:16;;;;;;;14.20;6.10;;;37.10;1.00;;;;;;5070716;28;20375;-73
2023/07/09 12:21:47;;;;;;;10.82;5.80;;;37.20;1.00;;;;;;5070456;28;20394;-72
2023/07/09 12:24:30;;;;;;;9.82;5.10;;;37.40;1.00;;;;;;5053641;28;20508;-72
2023/07/09 12:27:01;;;;;;;7.03;5.03;;;37.20;1.00;;;;;;5070753;28;20890;-73
2023/07/09 12:29:29;;;;;;;8.10;5.25;;;37.50;1.00;;;;;;5070680;28;20387;-73
2023/07/09 12:31:58;;;;;;;7.60;5.40;;;37.80;1.00;;;;;;5070098;28;20387;-73
2023/07/09 12:34:25;;;;;;;8.10;5.50;;;38.40;1.00;;;;;;5070349;28;20459;-73
2023/07/09 12:36:53;;;;;;;6.70;4.80;;;38.60;1.00;;;;;;5070339;28;20384;-73
2023/07/09 12:39:25;;;;;;;10.05;5.20;;;38.60;1.00;;;;;;5070557;28;20400;-73
2023/07/09 12:41:55;;;;;;;6.45;5.18;;;38.70;1.00;;;;;;5071549;28;20387;-73
2023/07/09 12:44:23;;;;;;;14.63;6.00;;;38.50;1.00;;;;;;5070598;28;20475;-73
2023/07/09 12:46:50;;;;;;;8.73;5.20;;;38.40;1.00;;;;;;5070919;28;20380;-73
2023/07/09 12:49:27;;;;;;;9.00;5.35;;;38.50;1.00;;;;;;5071250;28;20406;-73
2023/07/09 12:52:03;;;;;;;8.07;4.93;;;38.40;1.00;;;;;;5070555;28;20403;-73
2023/07/09 12:54:29;;;;;;;6.77;5.77;;;38.10;1.00;;;;;;5070065;28;20499;-73